createdAt,value
2018-12-01T00:00:30.683Z,10.50
2018-12-01T00:02:58.436Z,7.23
2018-12-01T00:05:26.216Z,8.60
2018-12-01T00:07:54.071Z,13.17
2018-12-01T00:10:21.670Z,9.77
2018-12-01T00:12:49.407Z,8.93
2018-12-01T00:15:20.034Z,12.40
2018-12-01T00:17:47.693Z,11.43
2018-12-01T00:20:16.363Z,8.63
2018-12-01T00:22:43.857Z,8.73
2018-12-01T00:25:11.339Z,9.60
2018-12-01T00:27:38.827Z,9.33
2018-12-01T00:30:10.030Z,7.87
2018-12-01T00:32:37.543Z,9.30
2018-12-01T00:35:06.378Z,13.33
2018-12-01T00:37:33.950Z,12.00
2018-12-01T00:40:01.430Z,13.97
2018-12-01T00:42:28.928Z,9.63
2018-12-01T00:44:56.423Z,9.03
2018-12-01T00:47:23.928Z,7.77
2018-12-01T00:49:51.380Z,11.67
2018-12-01T00:52:18.861Z,8.93
2018-12-01T00:54:46.346Z,11.90
2018-12-01T00:57:13.869Z,8.80
2018-12-01T00:59:41.352Z,8.87
2018-12-01T01:02:13.420Z,9.53
2018-12-01T01:04:40.869Z,8.43
2018-12-01T01:07:08.464Z,9.00
2018-12-01T01:09:36.014Z,9.63
2018-12-01T01:12:03.492Z,10.50
2018-12-01T01:14:31.033Z,7.53
2018-12-01T01:16:58.548Z,6.10
2018-12-01T01:19:26.064Z,4.90
2018-12-01T01:21:53.536Z,9.70
2018-12-01T01:24:21.000Z,6.37
2018-12-01T01:26:48.457Z,8.77
2018-12-01T01:29:15.943Z,10.83
2018-12-01T01:31:43.417Z,5.93
2018-12-01T01:34:10.972Z,8.57
2018-12-01T01:36:38.431Z,7.47
2018-12-01T01:39:07.565Z,5.33
2018-12-01T01:41:35.009Z,3.67
2018-12-01T01:44:02.479Z,6.20
2018-12-01T01:46:29.952Z,12.20
2018-12-01T01:48:57.421Z,12.40
2018-12-01T01:51:24.891Z,12.77
2018-12-01T01:53:52.529Z,9.93
2018-12-01T01:56:20.008Z,6.00
2018-12-01T01:58:47.468Z,7.97
2018-12-01T02:01:14.961Z,12.00
2018-12-01T02:03:42.434Z,9.00
2018-12-01T02:06:09.985Z,16.57
2018-12-01T02:08:37.456Z,10.07
2018-12-01T02:11:05.319Z,3.80
2018-12-01T02:13:32.795Z,7.27
2018-12-01T02:16:00.254Z,10.70
2018-12-01T02:18:27.701Z,9.90
2018-12-01T02:20:55.378Z,9.23
2018-12-01T02:23:22.916Z,8.10
2018-12-01T02:25:50.472Z,8.03
2018-12-01T02:28:17.951Z,6.30
2018-12-01T02:30:45.408Z,8.50
2018-12-01T02:33:12.873Z,7.53
2018-12-01T02:35:40.309Z,5.20
2018-12-01T02:38:07.747Z,11.43
2018-12-01T02:40:35.393Z,8.87
2018-12-01T02:43:02.740Z,8.73
2018-12-01T02:45:41.849Z,12.07
2018-12-01T02:48:09.450Z,11.73
2018-12-01T02:50:36.913Z,8.20
2018-12-01T02:53:04.391Z,12.27
2018-12-01T02:55:31.853Z,6.60
2018-12-01T02:57:59.351Z,7.97
2018-12-01T03:00:26.850Z,8.13
2018-12-01T03:02:54.525Z,11.30
2018-12-01T03:05:22.624Z,6.57
2018-12-01T03:07:50.665Z,7.60
2018-12-01T03:10:19.723Z,11.70
2018-12-01T03:12:47.200Z,9.17
2018-12-01T03:15:16.751Z,9.23
2018-12-01T03:17:44.317Z,9.17
2018-12-01T03:20:12.992Z,10.00
2018-12-01T03:22:40.480Z,7.43
2018-12-01T03:25:10.791Z,15.13
2018-12-01T03:27:38.260Z,5.90
2018-12-01T03:30:09.706Z,14.53
2018-12-01T03:32:37.316Z,12.73
2018-12-01T03:35:11.248Z,10.00
2018-12-01T03:37:41.657Z,8.50
2018-12-01T03:40:09.645Z,8.53
2018-12-01T03:42:37.137Z,11.03
2018-12-01T03:45:07.499Z,12.27
2018-12-01T03:47:34.976Z,10.43
2018-12-01T03:50:02.785Z,10.73
2018-12-01T03:52:30.242Z,7.33
2018-12-01T03:54:57.699Z,6.40
2018-12-01T03:57:25.192Z,11.03
2018-12-01T03:59:52.672Z,12.90
2018-12-01T04:02:20.173Z,7.17
2018-12-01T04:04:47.637Z,7.70
2018-12-01T04:07:15.144Z,9.73
2018-12-01T04:09:42.630Z,9.23
2018-12-01T04:12:10.176Z,8.10
2018-12-01T04:14:37.661Z,8.23
2018-12-01T04:17:05.168Z,9.53
2018-12-01T04:19:32.685Z,9.57
2018-12-01T04:22:00.173Z,10.53
2018-12-01T04:24:27.680Z,7.90
2018-12-01T04:26:55.383Z,7.90
2018-12-01T04:29:22.868Z,12.93
2018-12-01T04:31:50.543Z,13.10
2018-12-01T04:34:21.201Z,9.87
2018-12-01T04:36:49.115Z,13.27
2018-12-01T04:39:16.751Z,8.87
2018-12-01T04:41:44.252Z,11.33
2018-12-01T04:44:11.756Z,12.43
2018-12-01T04:46:39.225Z,7.83
2018-12-01T04:49:06.725Z,9.53
2018-12-01T04:51:34.285Z,9.07
2018-12-01T04:54:01.773Z,9.87
2018-12-01T04:56:29.691Z,9.47
2018-12-01T04:58:57.252Z,10.67
2018-12-01T05:01:24.869Z,3.90
2018-12-01T05:03:52.423Z,10.23
2018-12-01T05:06:19.885Z,6.43
2018-12-01T05:08:47.360Z,7.63
2018-12-01T05:11:14.827Z,8.47
2018-12-01T05:13:42.480Z,7.90
2018-12-01T05:16:10.189Z,6.17
2018-12-01T05:18:37.787Z,7.37
2018-12-01T05:21:05.281Z,8.17
2018-12-01T05:23:32.773Z,9.97
2018-12-01T05:26:00.248Z,9.30
2018-12-01T05:28:27.713Z,8.23
2018-12-01T05:30:55.366Z,9.30
2018-12-01T05:33:22.948Z,7.43
2018-12-01T05:35:50.602Z,11.33
2018-12-01T05:38:18.059Z,12.57
2018-12-01T05:40:45.545Z,8.73
2018-12-01T05:43:13.013Z,6.90
2018-12-01T05:45:40.495Z,8.67
2018-12-01T05:48:07.980Z,13.00
2018-12-01T05:50:35.456Z,10.67
2018-12-01T05:53:02.997Z,9.93
2018-12-01T05:55:30.508Z,8.30
2018-12-01T05:57:58.001Z,7.67
2018-12-01T06:00:25.508Z,9.00
2018-12-01T06:02:53.024Z,6.13
2018-12-01T06:05:20.495Z,6.67
2018-12-01T06:07:47.999Z,7.00
2018-12-01T06:10:16.523Z,13.23
2018-12-01T06:12:44.410Z,10.53
2018-12-01T06:15:12.944Z,10.43
2018-12-01T06:17:40.515Z,7.33
2018-12-01T06:20:09.973Z,7.10
2018-12-01T06:22:37.445Z,12.27
2018-12-01T06:25:06.729Z,9.13
2018-12-01T06:27:34.196Z,13.20
2018-12-01T06:30:01.657Z,5.60
2018-12-01T06:32:29.158Z,7.40
2018-12-01T06:34:56.740Z,11.70
2018-12-01T06:37:24.211Z,15.60
2018-12-01T06:39:51.680Z,8.00
2018-12-01T06:42:19.179Z,9.60
2018-12-01T06:44:46.660Z,11.43
2018-12-01T06:47:14.289Z,9.13
2018-12-01T06:49:41.760Z,8.90
2018-12-01T06:52:09.364Z,7.07
2018-12-01T06:54:36.852Z,11.00
2018-12-01T06:57:04.421Z,6.80
2018-12-01T06:59:31.897Z,9.93
2018-12-01T07:01:59.620Z,6.17
2018-12-01T07:04:27.078Z,10.67
2018-12-01T07:06:55.111Z,7.90
2018-12-01T07:09:22.592Z,6.37
2018-12-01T07:11:50.160Z,9.43
2018-12-01T07:14:17.674Z,8.27
2018-12-01T07:16:45.159Z,10.13
2018-12-01T07:19:15.296Z,14.50
2018-12-01T07:21:42.807Z,5.67
2018-12-01T07:24:10.736Z,7.50
2018-12-01T07:26:38.322Z,14.73
2018-12-01T07:29:05.796Z,10.83
2018-12-01T07:31:33.252Z,5.80
2018-12-01T07:34:00.735Z,15.53
2018-12-01T07:36:28.249Z,13.37
2018-12-01T07:38:56.130Z,7.27
2018-12-01T07:41:23.645Z,9.07
2018-12-01T07:43:51.158Z,8.90
2018-12-01T07:46:18.736Z,9.70
2018-12-01T07:48:46.255Z,9.53
2018-12-01T07:51:13.709Z,16.70
2018-12-01T07:53:41.180Z,8.63
2018-12-01T07:56:08.841Z,12.43
2018-12-01T07:58:36.300Z,8.13
2018-12-01T08:01:03.920Z,13.30
2018-12-01T08:03:31.375Z,7.10
2018-12-01T08:05:58.836Z,4.93
2018-12-01T08:08:26.296Z,12.43
2018-12-01T08:10:53.749Z,11.30
2018-12-01T08:13:21.215Z,7.07
2018-12-01T08:15:48.669Z,8.43
2018-12-01T08:18:16.330Z,7.17
2018-12-01T08:20:43.849Z,11.70
2018-12-01T08:23:11.327Z,11.10
2018-12-01T08:25:38.841Z,6.90
2018-12-01T08:28:07.792Z,7.40
2018-12-01T08:30:35.272Z,7.90
2018-12-01T08:33:02.742Z,7.27
2018-12-01T08:35:30.261Z,5.80
2018-12-01T08:37:57.762Z,8.70
2018-12-01T08:40:26.605Z,6.13
2018-12-01T08:42:54.105Z,10.73
2018-12-01T08:45:21.668Z,6.83
2018-12-01T08:47:49.366Z,9.20
2018-12-01T08:50:21.065Z,7.67
2018-12-01T08:52:48.744Z,5.27
2018-12-01T08:55:18.224Z,7.50
2018-12-01T08:57:45.736Z,6.87
2018-12-01T09:00:44.308Z,4.80
2018-12-01T09:03:21.963Z,13.40
2018-12-01T09:05:49.892Z,8.63
2018-12-01T09:08:17.369Z,9.17
2018-12-01T09:10:44.830Z,9.20
2018-12-01T09:13:12.288Z,6.70
2018-12-01T09:15:39.742Z,6.73
2018-12-01T09:18:07.248Z,5.30
2018-12-01T09:20:34.750Z,7.83
2018-12-01T09:23:02.244Z,8.87
2018-12-01T09:25:29.892Z,6.63
2018-12-01T09:27:57.422Z,6.33
2018-12-01T09:30:27.091Z,5.33
2018-12-01T09:32:54.744Z,6.73
2018-12-01T09:35:22.529Z,3.80
2018-12-01T09:37:50.300Z,5.70
2018-12-01T09:40:19.073Z,8.43
2018-12-01T09:42:46.861Z,4.70
2018-12-01T09:45:18.433Z,7.30
2018-12-01T09:47:47.022Z,4.47
2018-12-01T09:50:14.703Z,11.30
2018-12-01T09:52:42.140Z,6.63
2018-12-01T09:55:10.649Z,6.53
2018-12-01T09:57:38.903Z,5.10
2018-12-01T10:00:13.456Z,5.67
2018-12-01T10:02:40.744Z,6.93
2018-12-01T10:05:09.662Z,8.63
2018-12-01T10:07:36.976Z,8.50
2018-12-01T10:10:07.033Z,7.40
2018-12-01T10:12:34.412Z,5.50
2018-12-01T10:15:01.702Z,5.80
2018-12-01T10:17:28.995Z,7.87
2018-12-01T10:19:56.441Z,4.63
2018-12-01T10:22:23.818Z,3.90
2018-12-01T10:24:51.312Z,3.87
2018-12-01T10:27:18.637Z,9.63
2018-12-01T10:29:45.975Z,5.03
2018-12-01T10:32:13.269Z,8.50
2018-12-01T10:34:40.596Z,5.20
2018-12-01T10:37:07.858Z,5.60
2018-12-01T10:39:35.156Z,6.57
2018-12-01T10:42:03.679Z,6.83
2018-12-01T10:44:29.900Z,7.53
2018-12-01T10:46:57.483Z,5.13
2018-12-01T10:49:25.003Z,5.87
2018-12-01T10:51:52.535Z,5.30
2018-12-01T10:54:20.040Z,4.87
2018-12-01T10:56:47.581Z,7.27
2018-12-01T10:59:15.131Z,4.80
2018-12-01T11:01:48.569Z,8.17
2018-12-01T11:04:21.887Z,7.70
2018-12-01T11:06:49.735Z,6.83
2018-12-01T11:09:17.298Z,5.60
2018-12-01T11:11:45.063Z,6.77
2018-12-01T11:14:12.605Z,9.07
2018-12-01T11:16:40.159Z,4.33
2018-12-01T11:19:07.814Z,5.53
2018-12-01T11:21:35.498Z,7.40
2018-12-01T11:24:03.076Z,5.60
2018-12-01T11:26:30.573Z,4.27
2018-12-01T11:28:58.712Z,6.20
2018-12-01T11:31:26.245Z,6.57
2018-12-01T11:33:53.795Z,4.90
2018-12-01T11:36:21.323Z,5.47
2018-12-01T11:38:48.804Z,5.63
2018-12-01T11:41:16.397Z,3.77
2018-12-01T11:43:43.889Z,4.00
2018-12-01T11:46:11.575Z,5.07
2018-12-01T11:48:41.010Z,3.67
2018-12-01T11:51:08.531Z,4.10
2018-12-01T11:53:36.282Z,4.90
2018-12-01T11:56:03.984Z,4.70
2018-12-01T11:58:31.512Z,4.40
2018-12-01T12:00:59.157Z,4.27
2018-12-01T12:03:27.017Z,4.30
2018-12-01T12:05:54.601Z,6.33
2018-12-01T12:08:22.392Z,6.07
2018-12-01T12:10:50.495Z,7.73
2018-12-01T12:13:18.820Z,5.03
2018-12-01T12:15:46.331Z,8.23
2018-12-01T12:18:14.152Z,5.20
2018-12-01T12:20:41.621Z,4.57
2018-12-01T12:23:09.495Z,4.67
2018-12-01T12:25:37.008Z,5.23
2018-12-01T12:28:04.725Z,5.50
2018-12-01T12:30:32.341Z,5.17
2018-12-01T12:32:59.959Z,3.87
2018-12-01T12:35:27.500Z,4.00
2018-12-01T12:37:56.527Z,7.83
2018-12-01T12:40:25.133Z,5.07
2018-12-01T12:42:53.785Z,3.07
2018-12-01T12:45:21.353Z,2.40
2018-12-01T12:47:48.959Z,4.40
2018-12-01T12:50:17.397Z,3.37
2018-12-01T12:52:45.869Z,8.43
2018-12-01T12:55:17.415Z,3.47
2018-12-01T12:57:44.995Z,3.37
2018-12-01T13:00:13.476Z,4.87
2018-12-01T13:02:48.861Z,4.63
2018-12-01T13:05:19.258Z,3.27
2018-12-01T13:07:47.631Z,7.57
2018-12-01T13:10:17.142Z,4.53
2018-12-01T13:12:44.693Z,5.10
2018-12-01T13:15:13.082Z,7.30
2018-12-01T13:17:40.653Z,3.00
2018-12-01T13:20:10.334Z,3.10
2018-12-01T13:22:37.853Z,7.30
2018-12-01T13:25:08.846Z,3.80
2018-12-01T13:27:36.808Z,4.43
2018-12-01T13:30:08.663Z,3.53
2018-12-01T13:32:36.432Z,5.93
2018-12-01T13:35:05.044Z,3.80
2018-12-01T13:37:32.678Z,4.13
2018-12-01T13:40:00.860Z,3.50
2018-12-01T13:42:28.452Z,1.73
2018-12-01T13:44:56.104Z,3.20
2018-12-01T13:47:23.745Z,8.73
2018-12-01T13:49:51.649Z,2.83
2018-12-01T13:52:19.184Z,2.97
2018-12-01T13:54:46.693Z,5.60
2018-12-01T13:57:14.246Z,5.20
2018-12-01T13:59:41.763Z,2.83
2018-12-01T14:02:09.447Z,2.10
2018-12-01T14:04:37.110Z,2.27
2018-12-01T14:07:05.061Z,3.07
2018-12-01T14:09:32.588Z,3.37
2018-12-01T14:12:00.117Z,3.17
2018-12-01T14:14:27.640Z,3.13
2018-12-01T14:19:32.962Z,4.07
2018-12-01T14:22:00.501Z,3.63
2018-12-01T14:24:28.006Z,2.73
2018-12-01T14:26:55.771Z,3.03
2018-12-01T14:29:23.272Z,1.93
2018-12-01T14:31:51.006Z,2.77
2018-12-01T14:34:18.504Z,2.57
2018-12-01T14:36:46.004Z,2.47
2018-12-01T14:39:13.520Z,6.23
2018-12-01T14:41:41.033Z,6.90
2018-12-01T14:44:08.509Z,6.43
2018-12-01T14:46:36.160Z,6.67
2018-12-01T14:49:04.221Z,2.23
2018-12-01T14:51:31.796Z,4.20
2018-12-01T14:53:59.291Z,3.77
2018-12-01T14:56:26.791Z,3.30
2018-12-01T14:58:54.517Z,4.90
2018-12-01T15:01:22.249Z,4.43
2018-12-01T15:03:49.973Z,2.37
2018-12-01T15:06:17.698Z,3.47
2018-12-01T15:08:45.425Z,4.70
2018-12-01T15:11:12.933Z,3.87
2018-12-01T15:13:40.622Z,2.10
2018-12-01T15:16:08.180Z,4.27
2018-12-01T15:18:35.777Z,6.37
2018-12-01T15:21:03.374Z,3.30
2018-12-01T15:23:30.821Z,4.53
2018-12-01T15:25:58.312Z,1.90
2018-12-01T15:28:25.888Z,2.63
2018-12-01T15:30:53.372Z,2.00
2018-12-01T15:33:20.885Z,4.17
2018-12-01T15:35:48.386Z,2.03
2018-12-01T15:38:16.118Z,1.77
2018-12-01T15:40:45.994Z,3.27
2018-12-01T15:43:13.563Z,3.23
2018-12-01T15:45:41.308Z,2.63
2018-12-01T15:48:09.109Z,3.10
2018-12-01T15:50:37.309Z,1.90
2018-12-01T15:53:07.690Z,3.53
2018-12-01T15:55:35.213Z,6.20
2018-12-01T15:58:02.771Z,2.20
2018-12-01T16:00:30.332Z,3.90
2018-12-01T16:02:58.072Z,4.00
2018-12-01T16:05:25.602Z,2.47
2018-12-01T16:07:55.201Z,1.63
2018-12-01T16:10:23.416Z,3.00
2018-12-01T16:13:11.767Z,2.33
2018-12-01T16:15:41.680Z,2.23
2018-12-01T16:18:10.028Z,5.93
2018-12-01T16:20:37.784Z,3.33
2018-12-01T16:23:05.348Z,1.67
2018-12-01T16:25:32.855Z,2.17
2018-12-01T16:28:00.367Z,3.60
2018-12-01T16:30:39.201Z,3.63
2018-12-01T16:33:09.542Z,2.43
2018-12-01T16:35:37.085Z,3.33
2018-12-01T16:38:05.958Z,5.73
2018-12-01T16:40:35.426Z,5.00
2018-12-01T16:43:05.048Z,2.10
2018-12-01T16:45:32.612Z,5.73
2018-12-01T16:48:00.448Z,3.30
2018-12-01T16:50:27.970Z,3.50
2018-12-01T16:52:55.537Z,4.13
2018-12-01T16:55:23.092Z,2.80
2018-12-01T16:57:50.818Z,3.27
2018-12-01T17:00:19.274Z,2.77
2018-12-01T17:02:51.163Z,5.10
2018-12-01T17:05:19.359Z,3.40
2018-12-01T17:07:47.299Z,5.10
2018-12-01T17:10:16.106Z,4.50
2018-12-01T17:12:44.576Z,8.70
2018-12-01T17:15:13.358Z,5.10
2018-12-01T17:17:40.865Z,3.07
2018-12-01T17:20:10.406Z,2.93
2018-12-01T17:22:37.983Z,3.90
2018-12-01T17:25:08.341Z,3.20
2018-12-01T17:27:36.229Z,4.07
2018-12-01T17:30:36.198Z,4.00
2018-12-01T17:33:03.683Z,6.53
2018-12-01T17:35:31.017Z,3.33
2018-12-01T17:37:59.638Z,4.10
2018-12-01T17:40:38.142Z,3.10
2018-12-01T17:43:07.059Z,3.70
2018-12-01T17:45:34.473Z,3.67
2018-12-01T17:48:02.169Z,4.17
2018-12-01T17:50:29.558Z,3.50
2018-12-01T17:52:57.043Z,2.80
2018-12-01T17:55:25.928Z,2.60
2018-12-01T17:57:53.919Z,2.30
2018-12-01T18:00:23.558Z,2.40
2018-12-01T18:02:52.527Z,2.63
2018-12-01T18:05:28.697Z,2.33
2018-12-01T18:07:56.041Z,3.80
2018-12-01T18:10:23.225Z,2.63
2018-12-01T18:12:50.623Z,2.73
2018-12-01T18:15:17.951Z,3.60
2018-12-01T18:17:45.389Z,2.60
2018-12-01T18:20:16.095Z,2.30
2018-12-01T18:22:44.886Z,1.87
2018-12-01T18:25:12.293Z,1.80
2018-12-01T18:27:39.677Z,2.93
2018-12-01T18:30:27.054Z,2.33
2018-12-01T18:32:55.289Z,4.30
2018-12-01T18:35:22.677Z,3.67
2018-12-01T18:37:50.225Z,3.17
2018-12-01T18:40:19.133Z,1.93
2018-12-01T18:42:46.730Z,1.80
2018-12-01T18:45:15.485Z,4.33
2018-12-01T18:47:43.170Z,2.80
2018-12-01T18:50:13.109Z,7.23
2018-12-01T18:52:41.052Z,3.00
2018-12-01T18:55:11.056Z,3.37
2018-12-01T18:57:38.522Z,2.97
2018-12-01T19:00:13.720Z,1.90
2018-12-01T19:02:41.509Z,2.00
2018-12-01T19:05:09.664Z,3.00
2018-12-01T19:07:37.155Z,2.07
2018-12-01T19:10:12.449Z,2.50
2018-12-01T19:12:39.796Z,3.80
2018-12-01T19:15:08.849Z,3.83
2018-12-01T19:17:36.102Z,2.23
2018-12-01T19:20:06.228Z,2.90
2018-12-01T19:22:33.476Z,2.77
2018-12-01T19:25:01.127Z,3.07
2018-12-01T19:27:28.491Z,6.13
2018-12-01T19:29:56.052Z,2.57
2018-12-01T19:32:23.352Z,2.00
2018-12-01T19:34:51.016Z,3.73
2018-12-01T19:37:18.471Z,3.13
2018-12-01T19:39:46.001Z,6.13
2018-12-01T19:42:13.463Z,4.20
2018-12-01T19:44:41.007Z,5.13
2018-12-01T19:47:09.261Z,4.90
2018-12-01T19:49:36.751Z,2.60
2018-12-01T19:52:04.489Z,4.93
2018-12-01T19:54:32.070Z,4.10
2018-12-01T19:56:59.548Z,5.70
2018-12-01T19:59:27.148Z,2.20
2018-12-01T20:01:54.636Z,3.80
2018-12-01T20:04:22.118Z,4.13
2018-12-01T20:06:49.752Z,3.03
2018-12-01T20:09:17.244Z,2.07
2018-12-01T20:11:44.748Z,6.30
2018-12-01T20:14:14.340Z,2.23
2018-12-01T20:16:44.089Z,2.50
2018-12-01T20:19:11.604Z,2.50
2018-12-01T20:21:39.080Z,4.90
2018-12-01T20:24:08.192Z,4.53
2018-12-01T20:26:36.139Z,2.30
2018-12-01T20:29:03.454Z,4.20
2018-12-01T20:31:30.725Z,2.87
2018-12-01T20:33:59.856Z,4.33
2018-12-01T20:36:32.695Z,2.40
2018-12-01T20:39:13.928Z,2.23
2018-12-01T20:41:41.413Z,6.10
2018-12-01T20:44:08.952Z,4.80
2018-12-01T20:46:36.584Z,5.00
2018-12-01T20:49:04.691Z,2.57
2018-12-01T20:51:32.173Z,4.47
2018-12-01T20:53:59.697Z,2.53
2018-12-01T20:56:30.848Z,2.37
2018-12-01T20:58:58.331Z,2.47
2018-12-01T21:01:25.801Z,2.30
2018-12-01T21:03:53.309Z,2.43
2018-12-01T21:06:20.833Z,2.00
2018-12-01T21:08:48.366Z,4.13
2018-12-01T21:11:16.859Z,3.33
2018-12-01T21:13:44.351Z,3.90
2018-12-01T21:16:11.863Z,5.00
2018-12-01T21:18:39.409Z,3.03
2018-12-01T21:21:06.945Z,2.50
2018-12-01T21:23:34.513Z,5.50
2018-12-01T21:26:02.081Z,3.27
2018-12-01T21:28:29.869Z,2.33
2018-12-01T21:30:57.370Z,2.97
2018-12-01T21:33:28.743Z,3.50
2018-12-01T21:35:56.365Z,2.63
2018-12-01T21:38:23.894Z,2.97
2018-12-01T21:40:51.586Z,2.97
2018-12-01T21:43:19.150Z,3.17
2018-12-01T21:45:46.729Z,2.63
2018-12-01T21:48:14.548Z,3.30
2018-12-01T21:50:43.226Z,3.70
2018-12-01T21:53:20.446Z,2.50
2018-12-01T21:55:47.753Z,2.57
2018-12-01T21:58:15.100Z,2.67
2018-12-01T22:00:46.226Z,2.67
2018-12-01T22:03:14.301Z,2.90
2018-12-01T22:05:52.136Z,4.10
2018-12-01T22:08:19.445Z,3.93
2018-12-01T22:10:53.490Z,2.93
2018-12-01T22:13:20.816Z,2.80
2018-12-01T22:15:48.164Z,3.70
2018-12-01T22:18:15.536Z,3.17
2018-12-01T22:20:42.874Z,2.50
2018-12-01T22:23:10.437Z,3.87
2018-12-01T22:25:37.799Z,2.20
2018-12-01T22:28:07.014Z,3.40
2018-12-01T22:30:34.348Z,2.63
2018-12-01T22:33:01.820Z,4.97
2018-12-01T22:35:29.347Z,3.23
2018-12-01T22:37:57.477Z,2.70
2018-12-01T22:40:30.129Z,2.67
2018-12-01T22:43:03.850Z,2.83
2018-12-01T22:45:31.179Z,3.27
2018-12-01T22:47:59.486Z,1.83
2018-12-01T22:50:26.850Z,2.43
2018-12-01T22:52:54.746Z,2.00
2018-12-01T22:55:23.189Z,2.77
2018-12-01T22:57:56.484Z,2.47
2018-12-01T23:00:36.401Z,2.60
2018-12-01T23:03:04.273Z,2.00
2018-12-01T23:05:31.785Z,2.33
2018-12-01T23:07:59.157Z,1.90
2018-12-01T23:10:26.561Z,2.13
2018-12-01T23:12:53.946Z,2.50
2018-12-01T23:15:21.423Z,2.23
2018-12-01T23:17:48.905Z,2.60
2018-12-01T23:20:18.509Z,3.20
2018-12-01T23:22:46.216Z,2.10
2018-12-01T23:25:13.661Z,2.10
2018-12-01T23:27:41.039Z,2.07
2018-12-01T23:30:11.773Z,2.17
2018-12-01T23:32:39.353Z,1.73
2018-12-01T23:35:06.940Z,1.93
2018-12-01T23:37:34.496Z,1.87
2018-12-01T23:40:02.489Z,3.03
2018-12-01T23:42:30.140Z,1.93
2018-12-01T23:44:58.771Z,2.43
2018-12-01T23:47:26.305Z,1.73
2018-12-01T23:49:53.829Z,1.97
2018-12-01T23:52:21.369Z,2.13
2018-12-01T23:54:48.991Z,1.40
2018-12-01T23:57:16.977Z,1.67
2018-12-01T23:59:44.562Z,2.70
